Time;durP1;ratioP1;P1;durP2;ratioP2;P2;SDS_P1;SDS_P2;PMS_P1;PMS_P2;Temp;Humidity;BMP_temperature;BMP_pressure;BME280_temperature;BME280_humidity;BME280_pressure;Samples;Min_cycle;Max_cycle;Signal;HPM_P1;HPM_P2
2022/08/03 00:01:48;;;;;;;7.35;2.10;;;;;;;22.16;100.00;101487.25;5100867;27;20048;-62
2022/08/03 00:04:15;;;;;;;8.25;2.72;;;;;;;22.14;100.00;101486.63;5105062;27;20048;-61
2022/08/03 00:06:41;;;;;;;8.02;2.10;;;;;;;22.13;100.00;101488.50;5113952;27;20661;-62
2022/08/03 00:09:09;;;;;;;9.45;1.70;;;;;;;22.08;100.00;101475.75;5098469;27;20047;-63
2022/08/03 00:11:36;;;;;;;10.40;2.30;;;;;;;22.03;100.00;101475.56;5105338;27;20047;-61
2022/08/03 00:14:04;;;;;;;7.18;2.17;;;;;;;21.98;100.00;101485.22;5103294;27;20047;-62
2022/08/03 00:16:31;;;;;;;9.20;2.30;;;;;;;21.92;100.00;101479.66;5101564;28;20051;-64
2022/08/03 00:18:58;;;;;;;7.43;2.05;;;;;;;21.86;100.00;101480.47;5094769;27;20051;-63
2022/08/03 00:21:27;;;;;;;4.88;2.20;;;;;;;21.81;100.00;101474.91;5105380;27;20373;-61
2022/08/03 00:23:53;;;;;;;5.37;2.37;;;;;;;21.75;100.00;101482.94;5110366;27;20051;-63
2022/08/03 00:26:20;;;;;;;5.55;2.30;;;;;;;21.73;100.00;101469.78;5093074;27;20055;-63
2022/08/03 00:28:47;;;;;;;6.35;1.90;;;;;;;21.67;100.00;101473.28;5111432;27;20050;-63
2022/08/03 00:31:13;;;;;;;9.18;2.30;;;;;;;21.62;100.00;101481.91;5090116;27;20047;-62
2022/08/03 00:33:40;;;;;;;5.43;2.03;;;;;;;21.56;100.00;101482.72;5112237;27;20130;-61
2022/08/03 00:36:27;;;;;;;6.85;2.13;;;;;;;21.59;100.00;101489.50;5099463;27;20127;-62
2022/08/03 00:38:54;;;;;;;8.27;2.35;;;;;;;21.55;100.00;101481.06;5093438;27;20054;-61
2022/08/03 00:41:21;;;;;;;8.63;2.60;;;;;;;21.53;100.00;101483.13;5113969;27;20503;-62
2022/08/03 00:43:47;;;;;;;5.75;1.92;;;;;;;21.50;100.00;101486.19;5106759;27;20066;-63
2022/08/03 00:46:13;;;;;;;8.60;2.03;;;;;;;21.46;100.00;101480.44;5103387;27;20074;-62
2022/08/03 00:48:47;;;;;;;6.93;2.38;;;;;;;21.40;100.00;101477.72;5101923;27;20435;-61
2022/08/03 00:51:14;;;;;;;8.40;2.15;;;;;;;21.35;100.00;101477.53;5101601;27;20046;-61
2022/08/03 00:53:40;;;;;;;8.50;2.42;;;;;;;21.33;100.00;101481.19;5103878;27;20912;-62
2022/08/03 00:56:07;;;;;;;9.00;2.65;;;;;;;21.29;100.00;101469.28;5108209;27;20043;-62
2022/08/03 00:58:33;;;;;;;7.80;2.58;;;;;;;21.31;100.00;101464.56;5107476;27;20047;-62
2022/08/03 01:01:00;;;;;;;6.53;2.20;;;;;;;21.36;100.00;101463.97;5088967;27;20043;-62
2022/08/03 01:03:26;;;;;;;8.75;2.45;;;;;;;21.33;100.00;101461.72;5109396;27;20608;-62
2022/08/03 01:06:17;;;;;;;10.50;2.53;;;;;;;21.37;100.00;101460.28;5106945;27;20481;-63
2022/08/03 01:09:11;;;;;;;6.60;2.40;;;;;;;21.33;100.00;101465.19;5096543;28;20055;-62
2022/08/03 01:11:43;;;;;;;4.18;2.10;;;;;;;21.32;100.00;101460.88;5102182;27;20047;-62
2022/08/03 01:14:52;;;;;;;7.30;1.98;;;;;;;21.27;100.00;101458.00;5104760;27;20111;-62
2022/08/03 01:17:27;;;;;;;8.02;2.65;;;;;;;21.26;100.00;101460.84;5099470;27;20055;-62
2022/08/03 01:19:56;;;;;;;9.13;2.13;;;;;;;21.24;100.00;101458.38;5102057;27;20047;-62
2022/08/03 01:22:59;;;;;;;8.48;2.38;;;;;;;21.20;100.00;101459.81;5097043;27;20051;-63
2022/08/03 01:25:44;;;;;;;5.55;2.28;;;;;;;21.20;100.00;101459.81;5114712;28;20494;-62
2022/08/03 01:28:24;;;;;;;8.68;2.28;;;;;;;21.19;100.00;101457.34;5108996;27;20046;-62
2022/08/03 01:30:53;;;;;;;10.18;2.72;;;;;;;21.19;100.00;101457.34;5110805;27;20054;-62
2022/08/03 01:33:24;;;;;;;7.18;2.30;;;;;;;21.20;100.00;101459.81;5107669;27;20422;-61
2022/08/03 01:35:58;;;;;;;8.85;2.75;;;;;;;21.18;100.00;101456.53;5112125;27;20050;-62
2022/08/03 01:38:28;;;;;;;10.57;2.90;;;;;;;21.15;100.00;101451.63;5116365;27;20062;-62
2022/08/03 01:40:55;;;;;;;7.72;2.90;;;;;;;21.16;100.00;101455.09;5115670;27;20132;-62
2022/08/03 01:43:27;;;;;;;5.90;2.08;;;;;;;21.12;100.00;101452.81;5118816;27;20510;-60
2022/08/03 01:46:15;;;;;;;6.40;2.63;;;;;;;21.07;100.00;101451.78;5097807;27;20055;-61
2022/08/03 01:48:43;;;;;;;10.57;2.78;;;;;;;21.05;100.00;101454.66;5099538;27;20051;-64
2022/08/03 01:51:10;;;;;;;8.20;2.60;;;;;;;20.96;100.00;101449.72;5102217;27;20561;-62
2022/08/03 01:53:42;;;;;;;8.43;3.00;;;;;;;20.91;100.00;101445.81;5109639;27;20066;-61
2022/08/03 01:56:11;;;;;;;10.02;2.78;;;;;;;20.90;100.00;101448.66;5106169;27;20252;-62
2022/08/03 01:58:40;;;;;;;7.65;2.80;;;;;;;20.87;100.00;101441.84;5106827;27;20056;-62
2022/08/03 02:01:08;;;;;;;9.82;2.80;;;;;;;20.83;100.00;101448.63;5110316;27;20040;-63
2022/08/03 02:03:38;;;;;;;8.27;3.17;;;;;;;20.82;100.00;101444.31;5098567;27;20055;-63
2022/08/03 02:06:26;;;;;;;8.48;2.80;;;;;;;20.78;100.00;101442.22;5124235;27;20066;-64
2022/08/03 02:09:14;;;;;;;14.23;3.47;;;;;;;20.76;100.00;101438.94;5114548;27;20055;-63
2022/08/03 02:11:42;;;;;;;12.50;3.40;;;;;;;20.69;100.00;101444.25;5112573;27;20051;-64
2022/08/03 02:14:10;;;;;;;8.20;3.22;;;;;;;20.63;100.00;101440.53;5102168;27;20055;-63
2022/08/03 02:16:37;;;;;;;11.48;3.30;;;;;;;20.57;100.00;101435.97;5120283;27;20187;-63
2022/08/03 02:19:06;;;;;;;11.77;3.38;;;;;;;20.53;100.00;101438.19;5117069;27;20056;-63
2022/08/03 02:21:35;;;;;;;7.28;2.53;;;;;;;20.52;100.00;101441.91;5098327;27;20457;-63
2022/08/03 02:24:22;;;;;;;8.10;3.00;;;;;;;20.47;100.00;101443.50;5101484;27;20052;-63
2022/08/03 02:26:51;;;;;;;10.25;2.83;;;;;;;20.47;100.00;101440.84;5096906;27;20058;-63
2022/08/03 02:29:21;;;;;;;8.98;2.92;;;;;;;20.45;100.00;101437.56;5108201;27;20055;-62
2022/08/03 02:32:11;;;;;;;8.48;2.65;;;;;;;20.46;100.00;101440.00;5102640;27;20050;-62
2022/08/03 02:34:40;;;;;;;7.72;3.13;;;;;;;20.44;100.00;101434.03;5112314;27;20491;-62
2022/08/03 02:37:09;;;;;;;8.75;2.45;;;;;;;20.43;100.00;101436.94;5115010;27;20043;-61
2022/08/03 02:39:36;;;;;;;5.53;2.33;;;;;;;20.40;100.00;101432.78;5101269;27;20476;-62
2022/08/03 02:42:07;;;;;;;5.67;2.77;;;;;;;20.38;100.00;101426.84;5108200;27;20074;-62
2022/08/03 02:44:35;;;;;;;6.60;2.20;;;;;;;20.34;100.00;101425.59;5095047;28;20514;-62
2022/08/03 02:47:06;;;;;;;8.63;2.58;;;;;;;20.31;100.00;101424.16;5105078;27;20047;-62
2022/08/03 02:49:35;;;;;;;5.75;2.42;;;;;;;20.26;100.00;101426.56;5097732;27;20466;-62
2022/08/03 02:52:19;;;;;;;5.78;2.33;;;;;;;20.23;100.00;101429.66;5084903;27;20044;-61
2022/08/03 02:54:49;;;;;;;9.27;2.58;;;;;;;20.21;100.00;101428.16;5102970;27;20086;-61
2022/08/03 02:57:18;;;;;;;9.27;2.35;;;;;;;20.17;100.00;101425.09;5106802;27;20053;-62
2022/08/03 02:59:45;;;;;;;7.60;2.80;;;;;;;20.12;100.00;101417.69;5116439;27;20495;-63
2022/08/03 03:02:14;;;;;;;7.03;2.38;;;;;;;20.11;100.00;101423.19;5106337;27;20070;-63
2022/08/03 03:04:41;;;;;;;6.97;2.25;;;;;;;20.05;100.00;101426.63;5106975;27;20052;-62
2022/08/03 03:07:29;;;;;;;7.70;2.47;;;;;;;20.03;100.00;101418.03;5096023;27;20060;-61
2022/08/03 03:10:06;;;;;;;6.45;2.13;;;;;;;20.02;100.00;101424.38;5103873;27;20058;-63
2022/08/03 03:12:35;;;;;;;6.78;2.15;;;;;;;19.97;100.00;101424.13;5113686;27;20047;-63
2022/08/03 03:15:04;;;;;;;9.93;2.40;;;;;;;19.93;100.00;101421.88;5106974;27;20043;-63
2022/08/03 03:17:32;;;;;;;5.72;2.25;;;;;;;19.91;100.00;101420.41;5107505;27;20419;-62
2022/08/03 03:19:59;;;;;;;8.00;2.38;;;;;;;19.93;100.00;101423.69;5090920;27;20397;-62
2022/08/03 03:22:27;;;;;;;5.43;2.08;;;;;;;19.94;100.00;101418.19;5098036;27;20047;-62
2022/08/03 03:24:54;;;;;;;6.32;2.05;;;;;;;19.92;100.00;101424.72;5081505;27;20058;-62
2022/08/03 03:27:22;;;;;;;9.67;2.73;;;;;;;19.86;100.00;101420.16;5110409;27;20047;-61
2022/08/03 03:29:48;;;;;;;9.60;2.40;;;;;;;19.87;100.00;101411.16;5107879;27;20044;-62
2022/08/03 03:32:15;;;;;;;8.38;2.22;;;;;;;19.85;100.00;101414.00;5084611;28;20051;-63
2022/08/03 03:34:42;;;;;;;6.20;2.10;;;;;;;19.85;100.00;101416.66;5095988;27;20513;-62
2022/08/03 03:37:09;;;;;;;7.32;2.45;;;;;;;19.85;100.00;101414.00;5105450;27;20055;-62
2022/08/03 03:39:36;;;;;;;6.32;2.45;;;;;;;19.81;100.00;101410.09;5110859;27;20051;-62
2022/08/03 03:42:03;;;;;;;8.38;2.60;;;;;;;19.83;100.00;101409.91;5110990;27;20047;-62
2022/08/03 03:44:30;;;;;;;9.15;2.10;;;;;;;19.75;100.00;101413.53;5116263;27;20051;-62
2022/08/03 03:46:57;;;;;;;8.00;2.42;;;;;;;19.73;100.00;101418.22;5098466;27;20173;-63
2022/08/03 03:49:23;;;;;;;8.77;2.30;;;;;;;19.70;100.00;101407.94;5096419;27;20087;-62
2022/08/03 03:51:54;;;;;;;6.63;2.45;;;;;;;19.67;100.00;101413.63;5081722;28;20068;-63
2022/08/03 03:54:20;;;;;;;9.52;2.33;;;;;;;19.60;100.00;101410.06;5103920;27;20063;-62
2022/08/03 03:56:51;;;;;;;5.90;2.35;;;;;;;19.52;100.00;101411.88;5113142;27;20059;-63
2022/08/03 03:59:17;;;;;;;4.85;2.10;;;;;;;19.54;100.00;101419.66;5094420;27;20058;-63
2022/08/03 04:01:44;;;;;;;5.97;2.05;;;;;;;19.50;100.00;101415.72;5110111;27;20414;-63
2022/08/03 04:12:41;;;;;;;6.32;2.03;;;;;;;19.47;100.00;101416.94;5100955;28;20545;-62
2022/08/03 04:15:19;;;;;;;5.10;1.80;;;;;;;19.48;100.00;101415.09;5105040;27;20051;-63
2022/08/03 04:17:49;;;;;;;7.10;2.10;;;;;;;19.46;100.00;101423.25;5103061;27;20055;-62
2022/08/03 04:20:20;;;;;;;7.25;2.10;;;;;;;19.42;100.00;101421.19;5102201;27;20055;-63
2022/08/03 04:22:49;;;;;;;5.55;2.28;;;;;;;19.42;100.00;101422.00;5102462;27;20496;-62
2022/08/03 04:25:19;;;;;;;5.50;2.58;;;;;;;19.42;100.00;101423.84;5086991;27;20063;-62
2022/08/03 04:27:46;;;;;;;9.10;2.50;;;;;;;19.41;100.00;101425.69;5110689;27;20062;-63
2022/08/03 04:30:36;;;;;;;4.72;2.10;;;;;;;19.44;100.00;101421.81;5101295;27;20040;-63
2022/08/03 04:33:03;;;;;;;5.57;2.13;;;;;;;19.42;100.00;101415.84;5105985;27;20039;-62
2022/08/03 04:35:32;;;;;;;5.55;2.08;;;;;;;19.43;100.00;101420.19;5103180;27;20052;-62
2022/08/03 04:38:20;;;;;;;7.15;2.25;;;;;;;19.42;100.00;101427.31;5089134;27;20054;-62
2022/08/03 04:40:47;;;;;;;7.63;2.35;;;;;;;19.44;100.00;101425.28;5099025;27;20051;-62
2022/08/03 04:43:15;;;;;;;5.53;2.25;;;;;;;19.43;100.00;101426.31;5113632;27;20077;-61
2022/08/03 04:45:42;;;;;;;11.75;2.70;;;;;;;19.45;100.00;101426.13;5070515;28;20145;-62
2022/08/03 04:48:09;;;;;;;8.68;2.80;;;;;;;19.51;100.00;101426.19;5101812;27;20158;-61
2022/08/03 04:50:35;;;;;;;8.25;2.60;;;;;;;19.50;100.00;101432.53;5101356;27;20054;-62
2022/08/03 04:53:02;;;;;;;9.40;2.65;;;;;;;19.52;100.00;101424.34;5102801;27;20043;-63
2022/08/03 04:55:30;;;;;;;8.52;3.17;;;;;;;19.56;100.00;101436.25;5104887;27;20378;-61
2022/08/03 04:58:01;;;;;;;6.50;2.78;;;;;;;19.59;100.00;101435.88;5096646;27;20043;-62
2022/08/03 05:00:28;;;;;;;7.68;3.15;;;;;;;19.63;100.00;101436.31;5106869;27;20056;-62
2022/08/03 05:02:55;;;;;;;7.63;3.10;;;;;;;19.69;100.00;101440.88;5090598;28;20547;-64
2022/08/03 05:05:22;;;;;;;7.30;2.97;;;;;;;19.75;100.00;101443.63;5106414;27;20058;-62
2022/08/03 05:07:49;;;;;;;8.98;3.85;;;;;;;19.80;100.00;101442.22;5114053;27;20047;-61
2022/08/03 05:10:16;;;;;;;8.27;4.00;;;;;;;19.87;100.00;101441.25;5100866;27;20570;-62
2022/08/03 05:12:44;;;;;;;12.50;5.90;;;;;;;19.90;100.00;101438.22;5112160;27;20051;-62
2022/08/03 05:15:11;;;;;;;9.43;5.43;;;;;;;19.98;100.00;101439.09;5076519;28;20078;-62
2022/08/03 05:17:38;;;;;;;11.05;4.47;;;;;;;20.06;100.00;101444.28;5100181;28;20052;-62
2022/08/03 05:20:05;;;;;;;14.35;6.05;;;;;;;20.13;100.00;101450.44;5111781;27;20050;-62
2022/08/03 05:22:32;;;;;;;13.02;6.32;;;;;;;20.17;100.00;101446.41;5114170;27;20054;-64
2022/08/03 05:25:00;;;;;;;17.08;6.63;;;;;;;20.22;100.00;101451.94;5099579;27;20055;-62
2022/08/03 05:27:26;;;;;;;12.52;6.50;;;;;;;20.27;100.00;101452.19;5092310;28;20055;-62
2022/08/03 05:29:53;;;;;;;12.23;6.28;;;;;;;20.30;100.00;101451.78;5115809;28;20062;-62
2022/08/03 05:32:19;;;;;;;11.55;5.88;;;;;;;20.33;100.00;101458.59;5114876;28;20058;-63
2022/08/03 05:34:46;;;;;;;16.83;5.30;;;;;;;20.35;100.00;101459.22;5122471;28;20631;-61
2022/08/03 05:37:12;;;;;;;13.32;5.20;;;;;;;20.37;100.00;101453.69;5099263;28;20057;-61
2022/08/03 05:39:39;;;;;;;14.70;5.25;;;;;;;20.40;100.00;101454.13;5112779;28;20447;-61
2022/08/03 05:42:05;;;;;;;13.25;4.88;;;;;;;20.44;100.00;101454.53;5106424;27;20035;-61
2022/08/03 05:44:32;;;;;;;11.27;5.30;;;;;;;20.48;100.00;101459.31;5100472;28;20048;-62
2022/08/03 05:46:58;;;;;;;11.55;4.78;;;;;;;20.51;100.00;101444.75;5112594;28;20406;-63
2022/08/03 05:49:25;;;;;;;14.07;5.00;;;;;;;20.56;100.00;101460.97;5107374;28;20062;-61
2022/08/03 05:51:51;;;;;;;15.35;4.65;;;;;;;20.60;100.00;101458.75;5117890;28;20043;-61
2022/08/03 05:54:38;;;;;;;12.73;4.63;;;;;;;20.60;100.00;101456.94;5099176;28;20052;-61
2022/08/03 05:57:22;;;;;;;11.38;4.80;;;;;;;20.62;100.00;101460.22;5106134;28;20548;-62
2022/08/03 05:59:48;;;;;;;11.00;4.45;;;;;;;20.64;100.00;101463.53;5107687;27;20047;-61
2022/08/03 06:02:27;;;;;;;13.65;4.43;;;;;;;20.70;100.00;101470.72;5109094;27;20400;-62
2022/08/03 06:04:53;;;;;;;16.83;4.60;;;;;;;20.72;100.00;101463.34;5101193;28;20067;-63
2022/08/03 06:07:20;;;;;;;10.10;3.80;;;;;;;20.79;100.00;101468.69;5100092;27;20078;-62
2022/08/03 06:09:46;;;;;;;12.98;4.50;;;;;;;20.78;100.00;101461.72;5105618;27;20059;-63
2022/08/03 06:12:34;;;;;;;14.85;4.63;;;;;;;20.83;100.00;101475.28;5105274;28;20457;-62
2022/08/03 06:15:03;;;;;;;10.63;4.15;;;;;;;20.91;100.00;101469.78;5111607;27;20415;-62
2022/08/03 06:17:29;;;;;;;11.00;4.45;;;;;;;20.94;100.00;101468.56;5111583;27;20058;-62
2022/08/03 06:20:04;;;;;;;11.50;4.15;;;;;;;20.99;100.00;101467.97;5112040;27;20563;-61
2022/08/03 06:22:30;;;;;;;12.52;4.05;;;;;;;21.04;100.00;101471.66;5118388;27;20050;-61
2022/08/03 06:24:57;;;;;;;13.23;4.38;;;;;;;21.09;100.00;101476.41;5087005;28;20054;-62
2022/08/03 06:27:29;;;;;;;11.32;3.92;;;;;;;21.08;100.00;101478.25;5114867;27;20043;-62
2022/08/03 06:30:03;;;;;;;13.75;4.13;;;;;;;21.17;100.00;101475.41;5104044;27;20086;-63
2022/08/03 06:32:29;;;;;;;12.15;3.85;;;;;;;21.19;100.00;101474.19;5111689;27;20050;-62
2022/08/03 06:34:56;;;;;;;13.80;4.65;;;;;;;21.18;100.00;101480.53;5104596;27;20431;-62
2022/08/03 06:37:23;;;;;;;11.40;4.30;;;;;;;21.26;100.00;101477.69;5120640;27;20056;-63
2022/08/03 06:39:49;;;;;;;13.52;4.20;;;;;;;21.31;100.00;101483.25;5113341;27;20047;-62
2022/08/03 06:42:16;;;;;;;12.25;3.88;;;;;;;21.36;100.00;101479.97;5116132;27;20053;-62
2022/08/03 06:44:43;;;;;;;16.38;4.30;;;;;;;21.38;100.00;101483.25;5124342;27;20051;-62
2022/08/03 06:47:09;;;;;;;16.83;4.15;;;;;;;21.45;100.00;101483.31;5102612;27;20051;-62
2022/08/03 06:49:36;;;;;;;17.13;4.38;;;;;;;21.44;100.00;101490.47;5109379;27;20062;-62
2022/08/03 06:52:03;;;;;;;24.05;4.05;;;;;;;21.51;100.00;101477.16;5104175;27;20145;-62
2022/08/03 06:54:32;;;;;;;16.27;3.72;;;;;;;21.55;100.00;101482.94;5108283;27;20051;-61
2022/08/03 06:56:59;;;;;;;20.35;4.25;;;;;;;21.54;100.00;101487.41;5099014;27;20055;-61
2022/08/03 06:59:26;;;;;;;14.68;3.20;;;;;;;21.60;100.00;101489.31;5122405;27;20661;-62
2022/08/03 07:02:12;;;;;;;11.88;2.90;;;;;;;21.62;100.00;101479.25;5119703;27;20043;-62
2022/08/03 07:04:46;;;;;;;15.80;3.25;;;;;;;21.67;100.00;101476.75;5109821;27;20054;-62
2022/08/03 07:07:12;;;;;;;16.08;3.05;;;;;;;21.67;100.00;101482.09;5120123;27;20059;-61
2022/08/03 07:09:39;;;;;;;20.88;3.50;;;;;;;21.72;100.00;101476.97;5096525;28;20519;-61
2022/08/03 07:12:07;;;;;;;13.68;2.95;;;;;;;21.80;100.00;101480.50;5112613;27;20507;-61
2022/08/03 07:14:33;;;;;;;15.90;2.97;;;;;;;21.84;100.00;101479.06;5123362;27;20057;-62
2022/08/03 07:17:00;;;;;;;8.38;2.50;;;;;;;21.92;100.00;101476.97;5106097;27;20058;-61
2022/08/03 07:19:29;;;;;;;13.30;2.80;;;;;;;21.97;100.00;101481.69;5119337;27;20553;-62
2022/08/03 07:21:56;;;;;;;19.00;3.30;;;;;;;22.00;100.00;101481.28;5105707;27;20042;-62
2022/08/03 07:24:28;;;;;;;11.65;2.97;;;;;;;22.02;100.00;101481.91;5112945;27;20506;-62
2022/08/03 07:26:54;;;;;;;14.82;2.67;;;;;;;22.06;100.00;101485.00;5109463;27;20049;-62
2022/08/03 07:29:20;;;;;;;13.48;2.88;;;;;;;22.16;100.00;101493.41;5113155;27;20054;-62
2022/08/03 07:31:47;;;;;;;15.90;3.10;;;;;;;22.20;100.00;101485.81;5102475;28;20063;-62
2022/08/03 07:34:13;;;;;;;13.90;3.45;;;;;;;22.27;100.00;101490.16;5107712;28;20568;-62
2022/08/03 07:36:40;;;;;;;13.32;2.90;;;;;;;22.33;100.00;101487.69;5120669;27;20059;-62
2022/08/03 07:39:06;;;;;;;15.85;3.17;;;;;;;22.41;100.00;101495.47;5100335;27;20048;-63
2022/08/03 07:41:43;;;;;;;14.63;2.92;;;;;;;22.50;100.00;101489.69;5116632;27;20148;-62
2022/08/03 07:44:09;;;;;;;15.10;3.03;;;;;;;22.49;100.00;101487.22;5100643;27;20054;-61
2022/08/03 07:46:36;;;;;;;9.75;2.22;;;;;;;22.51;100.00;101491.31;5118611;27;20054;-62
2022/08/03 07:49:02;;;;;;;14.23;2.53;;;;;;;22.57;100.00;101494.19;5116059;27;20051;-60
2022/08/03 07:51:29;;;;;;;12.00;2.42;;;;;;;22.66;100.00;101493.75;5111443;27;20073;-60
2022/08/03 07:53:56;;;;;;;13.50;2.60;;;;;;;22.71;100.00;101491.25;5121804;27;20488;-63
2022/08/03 07:56:25;;;;;;;13.13;2.57;;;;;;;22.82;100.00;101480.97;5110058;27;20051;-61
2022/08/03 07:58:53;;;;;;;14.45;2.88;;;;;;;22.86;100.00;101490.19;5125774;27;20295;-61
2022/08/03 08:01:21;;;;;;;15.40;2.78;;;;;;;22.88;100.00;101491.63;5109756;27;20521;-61
2022/08/03 08:03:48;;;;;;;14.40;2.90;;;;;;;22.98;100.00;101491.16;5116777;27;20649;-61
2022/08/03 08:06:19;;;;;;;14.52;3.30;;;;;;;23.03;100.00;101494.06;5102076;27;20500;-61
2022/08/03 08:08:46;;;;;;;13.98;3.00;;;;;;;23.04;100.00;101489.53;5104081;27;20087;-61
2022/08/03 08:11:13;;;;;;;10.45;1.98;;;;;;;23.08;100.00;101493.41;5115417;27;20043;-62
2022/08/03 08:13:39;;;;;;;15.60;2.90;;;;;;;23.07;100.00;101486.41;5104775;27;20138;-64
2022/08/03 08:16:06;;;;;;;13.65;2.35;;;;;;;23.19;100.00;101487.41;5108168;28;20419;-61
2022/08/03 08:18:33;;;;;;;12.85;2.67;;;;;;;23.22;100.00;101484.28;5099713;27;20051;-62
2022/08/03 08:21:01;;;;;;;15.27;2.80;;;;;;;23.22;100.00;101480.78;5109901;27;20272;-62
2022/08/03 08:23:28;;;;;;;13.00;2.80;;;;;;;23.30;100.00;101486.69;5103156;27;20061;-62
2022/08/03 08:26:10;;;;;;;19.98;3.30;;;;;;;23.48;100.00;101493.19;5110588;27;20557;-61
2022/08/03 08:28:37;;;;;;;16.98;3.00;;;;;;;23.69;100.00;101486.66;5121516;27;20048;-62
2022/08/03 08:31:03;;;;;;;19.15;3.05;;;;;;;23.96;100.00;101491.84;5119963;27;20051;-62
2022/08/03 08:33:30;;;;;;;15.93;2.90;;;;;;;24.30;100.00;101487.81;5104171;27;20605;-62
2022/08/03 08:36:17;;;;;;;12.05;2.80;;;;;;;24.63;100.00;101489.34;5103357;27;20043;-62
2022/08/03 08:38:43;;;;;;;20.15;2.80;;;;;;;25.01;100.00;101489.09;5118457;27;20219;-63
2022/08/03 08:41:12;;;;;;;12.50;2.53;;;;;;;25.31;100.00;101491.00;5114677;27;20047;-62
2022/08/03 08:43:39;;;;;;;13.85;2.78;;;;;;;25.51;100.00;101489.88;5120064;27;20303;-62
2022/08/03 08:46:10;;;;;;;14.53;2.57;;;;;;;25.76;96.57;101479.78;5103442;28;20048;-63
2022/08/03 08:48:40;;;;;;;18.02;3.20;;;;;;;25.94;94.08;101491.50;5110062;27;20483;-61
2022/08/03 08:51:10;;;;;;;17.45;2.80;;;;;;;26.04;94.72;101484.47;5110235;27;20048;-61
2022/08/03 08:53:40;;;;;;;15.32;2.60;;;;;;;26.38;92.93;101497.31;5112560;27;20062;-63
2022/08/03 08:56:11;;;;;;;15.70;3.30;;;;;;;26.48;90.24;101492.16;5119048;27;20048;-61
2022/08/03 08:58:43;;;;;;;16.58;2.72;;;;;;;26.77;88.09;101494.94;5089721;27;20051;-61
2022/08/03 09:01:09;;;;;;;22.40;3.30;;;;;;;26.86;86.53;101496.22;5106088;27;20083;-61
2022/08/03 09:03:36;;;;;;;15.57;2.70;;;;;;;27.08;83.83;101501.75;5101835;27;20126;-63
2022/08/03 09:06:03;;;;;;;17.75;3.65;;;;;;;27.30;84.65;101491.13;5115602;27;20047;-61
2022/08/03 09:08:31;;;;;;;13.48;2.85;;;;;;;27.46;81.77;101488.72;5128114;27;20112;-61
2022/08/03 09:10:58;;;;;;;14.30;2.53;;;;;;;27.72;82.07;101480.00;5106349;27;20138;-61
2022/08/03 09:13:25;;;;;;;15.05;2.85;;;;;;;27.88;80.32;101482.97;5118684;27;20053;-62
2022/08/03 09:16:08;;;;;;;12.87;2.70;;;;;;;27.94;78.32;101485.47;5095659;27;20492;-61
2022/08/03 09:18:34;;;;;;;19.15;2.70;;;;;;;27.96;78.60;101477.16;5101090;28;20048;-62
2022/08/03 09:21:20;;;;;;;14.95;3.30;;;;;;;28.20;78.43;101481.28;5104663;27;20047;-62
2022/08/03 09:24:00;;;;;;;16.00;2.45;;;;;;;28.23;77.91;101485.38;5107994;28;20642;-62
2022/08/03 09:26:30;;;;;;;14.85;2.53;;;;;;;28.16;77.57;101480.13;5098758;28;20052;-62
2022/08/03 09:28:59;;;;;;;20.05;3.25;;;;;;;28.36;79.19;101485.00;5112988;28;20048;-61
2022/08/03 09:31:38;;;;;;;16.70;3.25;;;;;;;28.57;77.58;101488.00;5101733;27;20655;-62
2022/08/03 09:34:11;;;;;;;17.00;3.55;;;;;;;28.82;77.56;101475.88;5099170;28;20047;-61
2022/08/03 09:36:46;;;;;;;19.20;3.40;;;;;;;28.81;75.17;101485.84;5107293;28;20047;-62
2022/08/03 09:39:21;;;;;;;14.10;2.80;;;;;;;28.79;75.69;101482.56;5104463;27;20057;-62
2022/08/03 09:42:14;;;;;;;15.13;3.17;;;;;;;28.75;75.25;101479.56;5110616;28;20048;-61
2022/08/03 09:44:43;;;;;;;14.98;3.08;;;;;;;28.87;76.44;101492.13;5092155;28;20124;-60
2022/08/03 09:47:10;;;;;;;13.38;2.55;;;;;;;28.94;75.23;101482.75;5104838;28;20617;-62
2022/08/03 09:49:39;;;;;;;;;;;;;;;29.13;74.88;101488.66;5104333;27;20628;-61
2022/08/03 09:52:16;;;;;;;18.40;3.55;;;;;;;29.30;74.23;101488.53;5114684;27;19966;-63
2022/08/03 09:55:13;;;;;;;20.40;3.33;;;;;;;29.49;74.14;101483.56;5110313;27;20051;-62
2022/08/03 09:58:10;;;;;;;15.73;2.95;;;;;;;29.45;72.89;101482.47;5104939;28;20047;-63
2022/08/03 10:01:09;;;;;;;22.45;3.38;;;;;;;29.28;73.12;101487.16;5100889;28;20138;-62
2022/08/03 10:03:57;;;;;;;14.88;2.80;;;;;;;29.17;72.24;101488.97;5085367;27;20050;-62
2022/08/03 10:06:30;;;;;;;14.18;2.72;;;;;;;29.49;72.82;101488.19;5117900;27;20090;-62
2022/08/03 10:09:11;;;;;;;17.10;2.83;;;;;;;29.71;72.99;101479.97;5129944;27;20053;-61
2022/08/03 10:11:39;;;;;;;16.60;2.80;;;;;;;29.82;71.04;101483.59;5111178;27;20490;-62
2022/08/03 10:14:17;;;;;;;14.38;3.28;;;;;;;30.11;72.30;101486.78;5108706;27;20462;-63
2022/08/03 10:16:45;;;;;;;18.17;2.90;;;;;;;30.12;69.18;101485.69;5124175;27;20050;-60
2022/08/03 10:19:13;;;;;;;14.73;2.38;;;;;;;30.23;70.15;101483.84;5118386;27;20053;-61
2022/08/03 10:21:46;;;;;;;16.40;2.75;;;;;;;30.20;70.57;101481.66;5121082;27;20051;-62
2022/08/03 10:24:15;;;;;;;17.55;3.53;;;;;;;30.39;68.86;101474.75;5105559;27;20039;-61
2022/08/03 10:26:45;;;;;;;21.42;2.95;;;;;;;30.45;68.82;101472.88;5108555;27;20051;-61
2022/08/03 10:29:25;;;;;;;14.55;2.53;;;;;;;30.38;67.81;101477.72;5104611;28;20051;-62
2022/08/03 10:31:56;;;;;;;17.20;3.17;;;;;;;30.21;67.23;101472.50;5111837;27;20051;-61
2022/08/03 10:34:34;;;;;;;19.10;3.22;;;;;;;30.68;68.00;101474.34;5109013;28;20116;-62
2022/08/03 10:37:06;;;;;;;17.08;3.10;;;;;;;30.52;65.91;101473.44;5108284;27;20047;-60
2022/08/03 10:39:34;;;;;;;19.15;3.03;;;;;;;30.73;65.06;101464.31;5110595;27;20048;-62
2022/08/03 10:42:02;;;;;;;20.38;3.28;;;;;;;30.81;65.20;101470.28;5106835;27;20043;-61
2022/08/03 10:44:38;;;;;;;13.55;3.25;;;;;;;30.87;64.84;101466.50;5122796;27;20096;-62
2022/08/03 10:47:09;;;;;;;16.45;3.42;;;;;;;30.94;64.46;101453.56;5102074;28;20103;-60
2022/08/03 10:49:36;;;;;;;20.15;4.75;;;;;;;31.13;65.32;101465.53;5116932;27;20047;-60
2022/08/03 10:52:04;;;;;;;14.52;3.13;;;;;;;31.24;65.53;101460.09;5102096;27;20673;-61
2022/08/03 10:57:43;;;;;;;12.95;2.70;;;;;;;31.54;64.49;101453.91;5121644;27;20092;-61
2022/08/03 11:00:16;;;;;;;14.68;2.83;;;;;;;31.78;63.45;101450.63;5126065;27;20061;-63
2022/08/03 11:03:09;;;;;;;14.10;2.50;;;;;;;31.82;64.27;101444.38;5117313;27;20044;-61
2022/08/03 11:05:38;;;;;;;13.98;2.60;;;;;;;32.00;62.89;101442.97;5109004;27;20047;-60
2022/08/03 11:08:29;;;;;;;26.33;3.85;;;;;;;31.93;62.61;101429.72;5121425;27;20054;-61
2022/08/03 11:10:59;;;;;;;12.27;2.42;;;;;;;32.23;63.66;101427.19;5104895;27;20126;-62
2022/08/03 11:13:30;;;;;;;15.27;2.95;;;;;;;32.27;61.64;101428.25;5115726;27;20130;-65
2022/08/03 11:15:59;;;;;;;15.55;2.85;;;;;;;32.41;60.44;101425.75;5095808;27;20046;-61
2022/08/03 11:18:30;;;;;;;17.25;3.08;;;;;;;32.22;60.56;101431.00;5108578;28;20148;-61
2022/08/03 11:20:58;;;;;;;19.57;3.10;;;;;;;32.32;58.89;101420.09;5103451;27;20456;-62
2022/08/03 11:23:45;;;;;;;16.02;2.65;;;;;;;32.08;59.26;101433.47;5114347;27;20043;-62
2022/08/03 11:26:33;;;;;;;20.30;3.20;;;;;;;31.98;59.82;101423.44;5109253;27;20050;-62
2022/08/03 11:29:30;;;;;;;12.77;2.67;;;;;;;32.09;59.61;101426.97;5102543;27;20055;-60
2022/08/03 11:31:57;;;;;;;16.10;3.03;;;;;;;32.41;60.33;101417.63;5114208;27;20050;-62
2022/08/03 11:34:24;;;;;;;19.10;3.67;;;;;;;32.71;61.41;101419.34;5102869;28;20059;-63
2022/08/03 11:37:20;;;;;;;16.05;2.70;;;;;;;32.90;58.25;101419.50;5116607;27;20055;-61
2022/08/03 11:39:50;;;;;;;11.63;2.50;;;;;;;33.00;56.84;101415.91;5116761;27;20067;-64
2022/08/03 11:42:23;;;;;;;17.95;2.38;;;;;;;33.12;56.68;101429.97;5112575;27;20057;-61
2022/08/03 11:44:54;;;;;;;16.75;2.92;;;;;;;33.11;55.73;101428.38;5107787;27;20178;-60